createdAt,value
2023-03-31T00:01:42.743Z,29.75
2023-03-31T00:04:13.928Z,29.50
2023-03-31T00:06:43.510Z,34.72
2023-03-31T00:09:14.190Z,32.78
2023-03-31T00:11:42.982Z,35.10
2023-03-31T00:14:12.009Z,34.53
2023-03-31T00:16:40.765Z,36.22
2023-03-31T00:19:18.401Z,34.03
2023-03-31T00:21:51.664Z,36.83
2023-03-31T00:24:20.520Z,37.03
2023-03-31T00:26:49.271Z,35.38
2023-03-31T00:29:18.826Z,38.30
2023-03-31T00:31:47.910Z,37.22
2023-03-31T00:34:16.723Z,40.85
2023-03-31T00:36:47.698Z,38.33
2023-03-31T00:39:20.378Z,38.22
2023-03-31T00:41:49.210Z,36.95
2023-03-31T00:44:22.904Z,41.08
2023-03-31T00:46:56.302Z,39.13
2023-03-31T00:49:31.363Z,38.85
2023-03-31T00:52:05.316Z,43.95
2023-03-31T00:54:38.020Z,44.22
2023-03-31T00:57:08.294Z,44.17
2023-03-31T00:59:40.269Z,42.33
2023-03-31T01:02:10.270Z,40.53
2023-03-31T01:04:45.751Z,40.75
2023-03-31T01:07:19.632Z,37.22
2023-03-31T01:09:51.662Z,32.72
2023-03-31T01:12:20.485Z,37.50
2023-03-31T01:14:51.409Z,35.55
2023-03-31T01:17:22.444Z,33.13
2023-03-31T01:20:11.695Z,34.63
2023-03-31T01:23:24.820Z,28.40
2023-03-31T01:26:20.788Z,32.30
2023-03-31T01:31:40.861Z,35.60
2023-03-31T01:34:47.425Z,33.92
2023-03-31T01:38:06.303Z,34.25
2023-03-31T01:41:20.003Z,32.70
2023-03-31T01:43:55.347Z,34.30
2023-03-31T01:46:30.012Z,38.63
2023-03-31T01:49:07.966Z,36.70
2023-03-31T01:51:44.072Z,35.17
2023-03-31T01:54:22.949Z,33.53
2023-03-31T01:56:57.982Z,38.50
2023-03-31T01:59:31.533Z,33.25
2023-03-31T02:02:05.102Z,32.03
2023-03-31T02:04:38.719Z,35.25
2023-03-31T02:07:12.196Z,30.17
2023-03-31T02:09:45.537Z,35.00
2023-03-31T02:12:15.467Z,32.42
2023-03-31T02:14:49.330Z,33.70
2023-03-31T02:17:23.126Z,34.17
2023-03-31T02:19:54.910Z,29.67
2023-03-31T02:22:25.072Z,28.30
2023-03-31T02:24:55.359Z,30.10
2023-03-31T02:27:27.479Z,32.30
2023-03-31T02:29:58.148Z,29.75
2023-03-31T02:32:32.667Z,32.30
2023-03-31T02:35:02.056Z,27.55
2023-03-31T02:37:32.486Z,27.85
2023-03-31T02:40:09.000Z,30.98
2023-03-31T02:42:38.334Z,34.13
2023-03-31T02:45:40.489Z,28.75
2023-03-31T02:48:16.332Z,30.77
2023-03-31T02:51:18.700Z,31.58
2023-03-31T02:54:09.699Z,29.70
2023-03-31T02:56:53.782Z,34.10
2023-03-31T02:59:35.281Z,32.05
2023-03-31T03:02:17.481Z,31.83
2023-03-31T03:05:09.989Z,34.22
2023-03-31T03:07:48.286Z,32.67
2023-03-31T03:10:23.441Z,33.22
2023-03-31T03:12:59.419Z,38.72
2023-03-31T03:15:32.334Z,31.90
2023-03-31T03:18:04.102Z,31.67
2023-03-31T03:20:34.098Z,33.42
2023-03-31T03:23:02.544Z,36.08
2023-03-31T03:25:31.489Z,37.22
2023-03-31T03:28:00.905Z,36.10
2023-03-31T03:30:29.455Z,40.13
2023-03-31T03:32:59.122Z,40.33
2023-03-31T03:35:29.420Z,42.45
2023-03-31T03:37:58.109Z,49.10
2023-03-31T03:40:26.644Z,47.30
2023-03-31T03:42:56.351Z,44.65
2023-03-31T03:45:25.102Z,50.72
2023-03-31T03:47:55.328Z,43.88
2023-03-31T03:50:24.398Z,45.85
2023-03-31T03:52:55.992Z,48.80
2023-03-31T03:55:31.389Z,46.65
2023-03-31T03:58:00.498Z,50.60
2023-03-31T04:00:29.304Z,48.08
2023-03-31T04:02:58.798Z,63.45
2023-03-31T04:05:27.633Z,54.75
2023-03-31T04:08:00.961Z,58.33
2023-03-31T04:10:29.548Z,65.97
2023-03-31T04:12:58.021Z,71.72
2023-03-31T04:15:26.807Z,69.72
2023-03-31T04:17:58.462Z,71.18
2023-03-31T04:20:27.903Z,75.35
2023-03-31T04:22:56.873Z,86.78
2023-03-31T04:25:26.534Z,93.35
2023-03-31T04:27:56.117Z,79.35
2023-03-31T04:30:31.113Z,77.65
2023-03-31T04:33:02.788Z,79.60
2023-03-31T04:35:42.867Z,82.07
2023-03-31T04:38:11.912Z,72.40
2023-03-31T04:40:42.442Z,74.40
2023-03-31T04:43:11.332Z,75.80
2023-03-31T04:45:40.140Z,60.10
2023-03-31T04:48:10.711Z,73.85
2023-03-31T04:50:39.479Z,62.95
2023-03-31T04:53:08.553Z,65.63
2023-03-31T04:55:37.317Z,72.30
2023-03-31T04:58:07.544Z,73.63
2023-03-31T05:00:36.007Z,75.65
2023-03-31T05:03:04.954Z,73.82
2023-03-31T05:05:33.953Z,73.18
2023-03-31T05:08:03.117Z,70.05
2023-03-31T05:10:32.545Z,65.05
2023-03-31T05:13:01.311Z,63.50
2023-03-31T05:15:31.491Z,62.63
2023-03-31T05:18:01.522Z,61.90
2023-03-31T05:20:30.888Z,57.22
2023-03-31T05:22:59.609Z,62.95
2023-03-31T05:25:32.856Z,63.80
2023-03-31T05:28:02.518Z,57.83
2023-03-31T05:30:33.206Z,53.30
2023-03-31T05:33:02.164Z,51.33
2023-03-31T05:35:31.210Z,49.72
2023-03-31T05:38:00.046Z,47.60
2023-03-31T05:40:28.978Z,50.85
2023-03-31T05:42:57.761Z,46.55
2023-03-31T05:45:26.477Z,52.50
2023-03-31T05:47:56.777Z,45.03
2023-03-31T05:50:25.838Z,43.47
2023-03-31T05:52:54.454Z,46.28
2023-03-31T05:55:23.319Z,45.80
2023-03-31T05:57:51.878Z,52.63
2023-03-31T06:00:21.518Z,31.80
2023-03-31T06:02:51.510Z,43.88
2023-03-31T06:05:23.100Z,46.33
2023-03-31T06:07:51.905Z,43.63
2023-03-31T06:10:20.730Z,43.72
2023-03-31T06:12:50.219Z,44.10
2023-03-31T06:15:19.183Z,45.50
2023-03-31T06:17:48.184Z,45.33
2023-03-31T06:20:27.001Z,39.22
2023-03-31T06:22:58.224Z,47.95
2023-03-31T06:25:27.356Z,42.40
2023-03-31T06:27:56.912Z,43.60
2023-03-31T06:30:25.636Z,41.22
2023-03-31T06:32:54.655Z,39.85
2023-03-31T06:35:23.460Z,42.30
2023-03-31T06:37:52.489Z,40.70
2023-03-31T06:40:23.044Z,41.05
2023-03-31T06:42:51.616Z,35.92
2023-03-31T06:45:20.603Z,37.30
2023-03-31T06:47:52.591Z,36.63
2023-03-31T06:50:21.982Z,38.38
2023-03-31T06:52:52.808Z,33.33
2023-03-31T06:55:23.430Z,37.05
2023-03-31T06:57:52.975Z,31.85
2023-03-31T07:00:23.165Z,37.63
2023-03-31T07:02:52.941Z,32.08
2023-03-31T07:05:26.910Z,32.90
2023-03-31T07:07:56.382Z,24.60
2023-03-31T07:10:35.458Z,27.17
2023-03-31T07:13:05.726Z,27.85
2023-03-31T07:15:34.800Z,30.20
2023-03-31T07:18:03.363Z,29.88
2023-03-31T07:20:32.902Z,26.85
2023-03-31T07:23:01.407Z,28.23
2023-03-31T07:25:30.050Z,26.65
2023-03-31T07:28:00.177Z,25.45
2023-03-31T07:30:28.845Z,28.95
2023-03-31T07:32:57.631Z,22.60
2023-03-31T07:35:27.017Z,23.02
2023-03-31T07:37:56.178Z,22.33
2023-03-31T07:40:27.717Z,20.58
2023-03-31T07:42:57.257Z,23.98
2023-03-31T07:45:29.199Z,21.23
2023-03-31T07:48:00.478Z,22.02
2023-03-31T07:50:29.502Z,21.70
2023-03-31T07:52:58.074Z,23.02
2023-03-31T07:55:28.431Z,20.23
2023-03-31T07:57:57.320Z,19.27
2023-03-31T08:00:27.586Z,18.90
2023-03-31T08:02:56.370Z,18.67
2023-03-31T08:05:25.362Z,18.00
2023-03-31T08:07:54.473Z,19.50
2023-03-31T08:10:25.477Z,17.77
2023-03-31T08:12:54.868Z,15.57
2023-03-31T08:15:23.704Z,16.55
2023-03-31T08:17:54.349Z,16.70
2023-03-31T08:20:23.037Z,16.45
2023-03-31T08:22:51.867Z,15.02
2023-03-31T08:25:21.399Z,13.32
2023-03-31T08:27:51.135Z,13.73
2023-03-31T08:30:22.036Z,9.63
2023-03-31T08:32:50.996Z,11.95
2023-03-31T08:35:21.238Z,11.07
2023-03-31T08:37:49.998Z,8.93
2023-03-31T08:40:22.400Z,9.32
2023-03-31T08:42:53.130Z,8.32
2023-03-31T08:45:25.476Z,7.90
2023-03-31T08:48:01.105Z,7.57
2023-03-31T08:50:34.736Z,8.53
2023-03-31T08:53:07.234Z,9.05
2023-03-31T08:55:44.336Z,9.25
2023-03-31T08:58:23.597Z,9.23
2023-03-31T09:00:59.058Z,7.57
2023-03-31T09:03:37.273Z,7.00
2023-03-31T09:06:10.902Z,7.95
2023-03-31T09:08:42.733Z,7.40
2023-03-31T09:11:15.829Z,8.30
2023-03-31T09:14:17.566Z,7.07
2023-03-31T09:16:52.891Z,8.57
2023-03-31T09:19:34.619Z,9.15
2023-03-31T09:22:08.285Z,8.27
2023-03-31T09:24:45.390Z,7.78
2023-03-31T09:27:14.674Z,8.10
2023-03-31T09:29:46.697Z,6.40
2023-03-31T09:32:19.033Z,7.40
2023-03-31T09:34:52.704Z,7.35
2023-03-31T09:37:24.840Z,6.53
2023-03-31T09:39:54.163Z,5.68
2023-03-31T09:42:24.011Z,8.25
2023-03-31T09:44:52.862Z,5.82
2023-03-31T09:47:27.430Z,5.68
2023-03-31T09:49:57.518Z,4.97
2023-03-31T09:52:31.848Z,6.93
2023-03-31T09:55:02.922Z,6.40
2023-03-31T09:57:34.759Z,7.03
2023-03-31T10:00:16.832Z,6.28
2023-03-31T10:02:51.579Z,5.40
2023-03-31T10:05:29.138Z,5.25
2023-03-31T10:08:19.660Z,5.13
2023-03-31T10:10:51.546Z,4.43
2023-03-31T10:13:22.220Z,4.28
2023-03-31T10:15:55.134Z,3.78
2023-03-31T10:18:34.830Z,5.40
2023-03-31T10:21:05.868Z,4.43
2023-03-31T10:23:37.184Z,5.63
2023-03-31T10:26:06.273Z,5.88
2023-03-31T10:28:37.493Z,3.28
2023-03-31T10:31:11.461Z,3.65
2023-03-31T10:33:45.821Z,4.47
2023-03-31T10:36:23.384Z,6.07
2023-03-31T10:38:55.145Z,4.32
2023-03-31T10:41:27.656Z,6.70
2023-03-31T10:43:58.363Z,3.88
2023-03-31T10:46:42.284Z,6.40
2023-03-31T10:49:18.177Z,4.90
2023-03-31T10:51:51.876Z,4.28
2023-03-31T10:54:26.101Z,5.70
2023-03-31T10:56:57.925Z,3.67
2023-03-31T10:59:42.548Z,4.30
2023-03-31T11:02:50.300Z,5.65
2023-03-31T11:05:25.741Z,3.97
2023-03-31T11:08:07.026Z,6.93
2023-03-31T11:11:01.572Z,4.40
2023-03-31T11:13:39.668Z,5.03
2023-03-31T11:16:18.880Z,4.53
2023-03-31T11:19:03.612Z,5.45
2023-03-31T11:21:41.300Z,5.35
2023-03-31T11:24:24.626Z,4.70
2023-03-31T11:27:02.756Z,6.85
2023-03-31T11:29:36.630Z,4.22
2023-03-31T11:32:31.180Z,3.95
2023-03-31T11:35:21.422Z,4.93
2023-03-31T11:38:17.476Z,4.82
2023-03-31T11:41:00.766Z,3.95
2023-03-31T11:43:36.416Z,6.20
2023-03-31T11:46:12.384Z,4.82
2023-03-31T11:51:19.291Z,3.42
2023-03-31T11:53:49.667Z,4.22
2023-03-31T11:56:19.916Z,5.25
2023-03-31T11:58:56.423Z,4.80
2023-03-31T12:01:29.173Z,3.97
2023-03-31T12:04:06.619Z,3.83
2023-03-31T12:06:40.016Z,3.45
2023-03-31T12:09:17.262Z,5.22
2023-03-31T12:11:53.310Z,6.40
2023-03-31T12:14:32.385Z,4.13
2023-03-31T12:17:07.336Z,3.33
2023-03-31T12:19:44.018Z,4.30
2023-03-31T12:22:18.695Z,3.85
2023-03-31T12:24:50.664Z,4.03
2023-03-31T12:27:23.213Z,8.23
2023-03-31T12:29:58.870Z,5.47
2023-03-31T12:32:31.751Z,5.67
2023-03-31T12:35:05.946Z,3.67
2023-03-31T12:38:08.161Z,6.03
2023-03-31T12:40:44.705Z,5.07
2023-03-31T12:43:30.086Z,4.55
2023-03-31T12:46:08.164Z,3.63
2023-03-31T12:48:58.405Z,6.38
2023-03-31T12:51:43.878Z,10.10
2023-03-31T12:54:31.139Z,5.93
2023-03-31T12:57:15.524Z,5.57
2023-03-31T12:59:45.240Z,4.55
2023-03-31T13:02:25.133Z,6.15
2023-03-31T13:04:54.138Z,5.05
2023-03-31T13:07:41.398Z,7.57
2023-03-31T13:10:29.025Z,5.60
2023-03-31T13:13:04.728Z,5.28
2023-03-31T13:15:34.462Z,7.00
2023-03-31T13:18:06.703Z,4.65
2023-03-31T13:20:37.861Z,6.50
2023-03-31T13:23:19.894Z,6.93
2023-03-31T13:25:51.782Z,4.57
2023-03-31T13:28:44.902Z,6.93
2023-03-31T13:31:15.208Z,4.78
2023-03-31T13:34:01.055Z,5.18
2023-03-31T13:37:01.413Z,6.10
2023-03-31T13:39:48.440Z,7.60
2023-03-31T13:42:54.090Z,6.40
2023-03-31T13:45:44.784Z,6.70
2023-03-31T13:48:26.707Z,5.85
2023-03-31T13:51:11.095Z,9.00
2023-03-31T13:54:04.205Z,6.45
2023-03-31T13:57:00.484Z,6.93
2023-03-31T13:59:50.661Z,5.00
2023-03-31T14:02:47.848Z,5.40
2023-03-31T14:05:26.854Z,4.38
2023-03-31T14:08:00.106Z,4.82
2023-03-31T14:10:32.092Z,5.55
2023-03-31T14:13:13.124Z,5.90
2023-03-31T14:15:45.004Z,6.18
2023-03-31T14:18:22.079Z,4.45
2023-03-31T14:21:01.132Z,5.38
2023-03-31T14:23:45.052Z,6.78
2023-03-31T14:26:23.740Z,3.90
2023-03-31T14:29:13.837Z,4.30
2023-03-31T14:31:48.786Z,5.00
2023-03-31T14:34:34.664Z,5.95
2023-03-31T14:37:06.070Z,3.83
2023-03-31T14:39:39.063Z,4.68
2023-03-31T14:42:13.163Z,5.00
2023-03-31T14:44:46.866Z,4.40
2023-03-31T14:47:17.412Z,5.88
2023-03-31T14:49:46.664Z,4.97
2023-03-31T14:52:18.707Z,9.13
2023-03-31T14:54:49.540Z,28.85
2023-03-31T14:57:21.786Z,19.58
2023-03-31T14:59:53.993Z,4.72
2023-03-31T15:02:33.024Z,5.53
2023-03-31T15:05:05.750Z,3.55
2023-03-31T15:07:35.830Z,6.13
2023-03-31T15:10:07.985Z,4.65
2023-03-31T15:12:38.390Z,5.15
2023-03-31T15:15:08.476Z,5.38
2023-03-31T15:17:39.845Z,5.30
2023-03-31T15:20:29.749Z,5.35
2023-03-31T15:22:59.529Z,6.97
2023-03-31T15:25:34.360Z,5.97
2023-03-31T15:28:06.752Z,5.97
2023-03-31T15:30:37.557Z,6.22
2023-03-31T15:33:18.939Z,5.97
2023-03-31T15:35:49.180Z,6.53
2023-03-31T15:38:19.027Z,5.75
2023-03-31T15:40:53.788Z,6.18
2023-03-31T15:43:30.914Z,6.45
2023-03-31T15:46:00.976Z,7.07
2023-03-31T15:48:33.805Z,5.93
2023-03-31T15:51:03.805Z,7.78
2023-03-31T15:53:39.219Z,6.50
2023-03-31T15:56:09.634Z,6.10
2023-03-31T15:59:06.834Z,6.30
2023-03-31T16:01:40.170Z,8.77
2023-03-31T16:04:11.439Z,7.75
2023-03-31T16:06:46.851Z,7.10
2023-03-31T16:09:18.680Z,7.80
2023-03-31T16:11:53.754Z,7.30
2023-03-31T16:14:25.973Z,6.05
2023-03-31T16:16:57.356Z,7.88
2023-03-31T16:19:30.723Z,7.40
2023-03-31T16:22:02.266Z,7.60
2023-03-31T16:24:34.176Z,7.22
2023-03-31T16:27:07.856Z,5.85
2023-03-31T16:29:38.158Z,8.07
2023-03-31T16:32:13.766Z,7.95
2023-03-31T16:34:59.454Z,8.25
2023-03-31T16:37:28.987Z,7.50
2023-03-31T16:39:58.571Z,8.15
2023-03-31T16:42:29.069Z,9.95
2023-03-31T16:45:13.062Z,5.82
2023-03-31T16:47:45.486Z,9.65
2023-03-31T16:50:15.766Z,8.93
2023-03-31T16:52:44.488Z,8.80
2023-03-31T16:55:13.272Z,8.05
2023-03-31T16:57:43.498Z,7.85
2023-03-31T17:00:15.863Z,7.40
2023-03-31T17:02:44.763Z,8.75
2023-03-31T17:05:14.025Z,7.15
2023-03-31T17:07:43.517Z,6.82
2023-03-31T17:10:12.946Z,6.57
2023-03-31T17:12:43.419Z,10.65
2023-03-31T17:15:13.399Z,6.72
2023-03-31T17:17:42.327Z,7.15
2023-03-31T17:20:12.643Z,9.40
2023-03-31T17:22:41.824Z,6.78
2023-03-31T17:25:11.454Z,6.55
2023-03-31T17:27:39.976Z,7.40
2023-03-31T17:30:11.039Z,7.50
2023-03-31T17:32:39.880Z,7.60
2023-03-31T17:35:10.404Z,8.50
2023-03-31T17:37:39.716Z,8.07
2023-03-31T17:40:09.931Z,9.02
2023-03-31T17:42:39.072Z,8.35
2023-03-31T17:45:11.152Z,9.70
2023-03-31T17:47:40.016Z,10.32
2023-03-31T17:50:11.281Z,7.93
2023-03-31T17:52:40.581Z,9.02
2023-03-31T17:55:09.804Z,11.52
2023-03-31T17:57:40.663Z,10.82
2023-03-31T18:00:12.254Z,10.38
2023-03-31T18:02:41.059Z,11.85
2023-03-31T18:05:11.541Z,10.77
2023-03-31T18:07:41.537Z,12.05
2023-03-31T18:10:12.058Z,11.73
2023-03-31T18:12:41.403Z,12.18
2023-03-31T18:15:13.034Z,9.20
2023-03-31T18:17:43.405Z,9.38
2023-03-31T18:20:13.103Z,8.10
2023-03-31T18:22:42.225Z,7.78
2023-03-31T18:25:11.846Z,9.48
2023-03-31T18:27:40.714Z,9.75
2023-03-31T18:30:14.603Z,10.13
2023-03-31T18:32:57.081Z,7.50
2023-03-31T18:35:25.941Z,9.15
2023-03-31T18:37:54.626Z,10.63
2023-03-31T18:40:26.429Z,9.35
2023-03-31T18:42:55.097Z,6.75
2023-03-31T18:45:28.060Z,8.30
2023-03-31T18:47:57.211Z,5.75
2023-03-31T18:50:26.220Z,7.75
2023-03-31T18:52:55.239Z,7.40
2023-03-31T18:55:24.252Z,5.88
2023-03-31T18:57:53.181Z,5.57
2023-03-31T19:00:22.705Z,6.53
2023-03-31T19:02:53.733Z,6.20
2023-03-31T19:05:22.695Z,7.82
2023-03-31T19:07:51.570Z,5.88
2023-03-31T19:10:20.576Z,5.78
2023-03-31T19:12:49.837Z,6.30
2023-03-31T19:15:19.540Z,6.60
2023-03-31T19:17:48.014Z,5.88
2023-03-31T19:20:18.433Z,5.63
2023-03-31T19:22:49.421Z,6.03
2023-03-31T19:25:19.729Z,8.60
2023-03-31T19:27:48.637Z,6.95
2023-03-31T19:30:19.045Z,7.18
2023-03-31T19:32:48.999Z,7.28
2023-03-31T19:35:20.288Z,4.82
2023-03-31T19:37:49.912Z,6.95
2023-03-31T19:40:18.809Z,7.82
2023-03-31T19:42:47.635Z,10.60
2023-03-31T19:45:16.420Z,8.18
2023-03-31T19:47:45.102Z,10.25
2023-03-31T19:50:14.291Z,10.75
2023-03-31T19:52:46.843Z,11.60
2023-03-31T19:55:17.670Z,12.48
2023-03-31T19:57:46.184Z,11.82
2023-03-31T20:00:18.308Z,10.77
2023-03-31T20:02:48.321Z,6.78
2023-03-31T20:05:19.755Z,7.15
2023-03-31T20:07:50.469Z,8.15
2023-03-31T20:10:19.650Z,6.38
2023-03-31T20:12:48.125Z,11.57
2023-03-31T20:15:17.136Z,12.30
2023-03-31T20:17:46.679Z,12.68
2023-03-31T20:20:15.125Z,13.48
2023-03-31T20:22:43.984Z,11.02
2023-03-31T20:25:14.077Z,10.60
2023-03-31T20:27:43.567Z,15.13
2023-03-31T20:30:13.410Z,13.57
2023-03-31T20:32:42.586Z,7.40
2023-03-31T20:35:11.030Z,9.88
2023-03-31T20:37:39.667Z,8.93
2023-03-31T20:40:09.521Z,8.05
2023-03-31T20:42:39.680Z,6.85
2023-03-31T20:45:18.578Z,9.80
2023-03-31T20:47:47.366Z,13.75
2023-03-31T20:50:16.861Z,13.15
2023-03-31T20:52:47.636Z,7.07
2023-03-31T20:55:16.982Z,7.88
2023-03-31T20:57:48.383Z,7.32
2023-03-31T21:00:18.417Z,12.18
2023-03-31T21:02:47.378Z,9.70
2023-03-31T21:05:17.988Z,8.27
2023-03-31T21:07:46.675Z,9.80
2023-03-31T21:10:15.159Z,7.82
2023-03-31T21:12:46.319Z,7.70
2023-03-31T21:15:16.403Z,8.95
2023-03-31T21:17:45.101Z,8.55
2023-03-31T21:20:13.967Z,9.18
2023-03-31T21:22:42.797Z,9.27
2023-03-31T21:25:11.714Z,10.35
2023-03-31T21:27:40.421Z,10.35
2023-03-31T21:30:10.528Z,9.55
2023-03-31T21:32:41.135Z,13.55
2023-03-31T21:35:10.798Z,12.75
2023-03-31T21:37:39.440Z,10.95
2023-03-31T21:40:09.150Z,12.13
2023-03-31T21:42:37.622Z,9.50
2023-03-31T21:45:06.798Z,11.18
2023-03-31T21:47:35.216Z,11.57
2023-03-31T21:50:06.582Z,10.80
2023-03-31T21:52:35.513Z,10.82
2023-03-31T21:55:04.094Z,11.00
2023-03-31T21:57:32.840Z,11.27
2023-03-31T22:00:01.747Z,11.88
2023-03-31T22:02:34.078Z,13.02
2023-03-31T22:05:03.358Z,11.82
2023-03-31T22:07:36.591Z,10.60
2023-03-31T22:10:05.703Z,7.88
2023-03-31T22:12:34.189Z,9.32
2023-03-31T22:15:03.010Z,8.75
2023-03-31T22:17:32.214Z,7.22
2023-03-31T22:20:01.082Z,8.07
2023-03-31T22:22:30.008Z,11.10
2023-03-31T22:24:59.897Z,5.95
2023-03-31T22:27:28.408Z,7.82
2023-03-31T22:29:57.435Z,6.95
2023-03-31T22:32:26.706Z,6.82
2023-03-31T22:34:58.162Z,7.50
2023-03-31T22:37:27.217Z,10.25
2023-03-31T22:39:56.081Z,7.70
2023-03-31T22:42:26.636Z,6.35
2023-03-31T22:44:55.512Z,5.38
2023-03-31T22:47:24.426Z,6.50
2023-03-31T22:49:53.009Z,8.02
2023-03-31T22:52:21.888Z,7.43
2023-03-31T22:54:50.994Z,6.88
2023-03-31T22:57:19.625Z,7.10
2023-03-31T22:59:50.472Z,8.38
2023-03-31T23:02:19.278Z,7.68
2023-03-31T23:04:48.109Z,7.40
2023-03-31T23:07:17.071Z,7.25
2023-03-31T23:09:46.027Z,9.13
2023-03-31T23:12:14.766Z,6.20
2023-03-31T23:14:43.505Z,6.93
2023-03-31T23:17:14.147Z,7.88
2023-03-31T23:19:43.317Z,6.90
2023-03-31T23:22:12.097Z,6.95
2023-03-31T23:24:40.785Z,4.95
2023-03-31T23:27:09.618Z,6.00
2023-03-31T23:29:38.741Z,7.22
2023-03-31T23:32:07.311Z,5.93
2023-03-31T23:34:41.542Z,6.65
2023-03-31T23:37:10.823Z,4.93
2023-03-31T23:39:39.872Z,6.07
2023-03-31T23:42:08.691Z,8.40
2023-03-31T23:44:38.305Z,7.63
2023-03-31T23:47:07.297Z,6.10
2023-03-31T23:49:37.519Z,7.32
2023-03-31T23:52:06.648Z,7.68
2023-03-31T23:54:35.373Z,7.07
2023-03-31T23:57:04.303Z,6.65
2023-03-31T23:59:32.852Z,7.22
